Time;durP1;ratioP1;P1;durP2;ratioP2;P2;SDS_P1;SDS_P2;PMS_P1;PMS_P2;Temp;Humidity;BMP_temperature;BMP_pressure;BME280_temperature;BME280_humidity;BME280_pressure;Samples;Min_cycle;Max_cycle;Signal;HPM_P1;HPM_P2
2022/08/31 00:06:00;;;;;;;;;;;;;;;29.44;41.91;94380.97;4950165;28;7171;-60
2022/08/31 00:08:27;;;;;;;;;;;;;;;29.48;42.40;94386.94;4936889;28;7142;-61
2022/08/31 00:11:13;;;;;;;;;;;;;;;29.50;41.88;94393.44;4934609;28;8560;-60
2022/08/31 00:13:40;;;;;;;;;;;;;;;29.49;41.64;94389.16;4950954;28;7703;-61
2022/08/31 00:16:15;;;;;;;;;;;;;;;29.50;41.73;94392.69;4955451;28;7303;-61
2022/08/31 00:18:42;;;;;;;;;;;;;;;29.48;42.07;94390.47;4946525;28;7850;-61
2022/08/31 00:21:08;;;;;;;;;;;;;;;29.48;42.20;94389.72;4949201;28;7383;-61
2022/08/31 00:23:34;;;;;;;;;;;;;;;29.46;41.85;94386.72;4949715;28;8907;-61
2022/08/31 00:26:01;;;;;;;;;;;;;;;29.46;42.21;94386.72;4953422;28;7301;-60
2022/08/31 00:28:35;;;;;;;;;;;;;;;29.44;42.10;94390.03;4976555;28;9488;-61
2022/08/31 00:31:19;;;;;;;;;;;;;;;29.45;41.60;94396.34;5005488;28;6942;-60
2022/08/31 00:33:51;;;;;;;;;;;;;;;29.48;41.24;94392.47;4985210;28;7241;-61
2022/08/31 00:36:26;;;;;;;;;;;;;;;29.48;41.94;94390.47;4984154;28;7609;-61
2022/08/31 00:38:55;;;;;;;;;;;;;;;29.50;41.61;94392.69;5003057;28;7376;-61
2022/08/31 00:41:37;;;;;;;;;;;;;;;29.48;41.67;94395.25;4989685;28;7049;-61
2022/08/31 00:44:16;;;;;;;;;;;;;;;29.49;41.92;94397.47;5010943;28;7672;-60
2022/08/31 00:46:43;;;;;;;;;;;;;;;29.47;41.64;94396.53;4982725;28;7227;-61
2022/08/31 00:49:20;;;;;;;;;;;;;;;29.50;41.47;94398.22;5004238;28;7071;-61
2022/08/31 00:52:08;;;;;;;;;;;;;;;29.52;41.93;94396.41;4988108;28;9359;-60
2022/08/31 00:54:59;;;;;;;;;;;;;;;29.48;41.88;94392.47;5002327;28;7199;-60
2022/08/31 00:57:38;;;;;;;;;;;;;;;29.45;42.05;94396.34;4976190;28;7198;-61
2022/08/31 01:00:10;;;;;;;;;;;;;;;29.49;42.06;94402.28;4987195;28;7290;-60
2022/08/31 01:02:37;;;;;;;;;;;;;;;29.47;42.15;94393.78;4994537;28;7246;-61
2022/08/31 01:05:06;;;;;;;;;;;;;;;29.48;41.50;94392.47;5008668;28;9382;-60
2022/08/31 01:07:32;;;;;;;;;;;;;;;29.48;41.26;94396.00;4987500;28;7392;-60
2022/08/31 01:09:59;;;;;;;;;;;;;;;29.47;41.24;94396.53;4988511;28;7471;-60
2022/08/31 01:12:30;;;;;;;;;;;;;;;29.45;41.58;94390.81;5002922;28;7181;-60
2022/08/31 01:15:04;;;;;;;;;;;;;;;29.45;41.59;94385.25;4986692;28;7187;-61
2022/08/31 01:17:39;;;;;;;;;;;;;;;29.44;42.21;94392.81;5003202;28;7087;-60
2022/08/31 01:20:29;;;;;;;;;;;;;;;29.44;41.84;94394.84;4985967;28;8506;-61
2022/08/31 01:23:07;;;;;;;;;;;;;;;29.43;41.53;94398.88;5009011;28;8164;-61
2022/08/31 01:25:45;;;;;;;;;;;;;;;29.42;41.50;94397.41;4993249;28;8034;-61
2022/08/31 01:28:15;;;;;;;;;;;;;;;29.44;41.87;94401.13;5009503;28;7221;-60
2022/08/31 01:31:07;;;;;;;;;;;;;;;29.44;41.79;94403.91;4996133;28;10481;-60
2022/08/31 01:33:37;;;;;;;;;;;;;;;29.45;41.37;94401.88;4999280;28;7279;-61
2022/08/31 01:36:13;;;;;;;;;;;;;;;29.44;41.51;94403.91;4998331;28;7545;-60
2022/08/31 01:38:42;;;;;;;;;;;;;;;29.42;41.54;94400.16;5010220;28;9310;-60
2022/08/31 01:41:25;;;;;;;;;;;;;;;29.41;42.11;94395.91;4988713;28;7266;-61
2022/08/31 01:43:57;;;;;;;;;;;;;;;29.38;41.61;94394.97;4986538;28;6990;-61
2022/08/31 01:46:24;;;;;;;;;;;;;;;29.37;41.53;94403.78;4991884;28;7040;-61
2022/08/31 01:48:51;;;;;;;;;;;;;;;29.39;41.60;94409.53;4991140;28;7403;-60
2022/08/31 01:51:24;;;;;;;;;;;;;;;29.36;42.16;94396.78;4987710;28;9193;-61
2022/08/31 01:53:51;;;;;;;;;;;;;;;29.36;41.47;94402.31;5007461;28;7305;-61
2022/08/31 01:56:30;;;;;;;;;;;;;;;29.38;41.53;94399.75;4990274;28;7760;-61
2022/08/31 01:59:07;;;;;;;;;;;;;;;29.36;41.56;94405.09;4990938;28;9318;-61
2022/08/31 02:01:38;;;;;;;;;;;;;;;29.30;41.72;94396.88;4987808;28;7012;-60
2022/08/31 02:04:07;;;;;;;;;;;;;;;29.29;41.67;94408.50;4992701;28;7469;-60
2022/08/31 02:06:33;;;;;;;;;;;;;;;29.28;41.92;94401.47;4972503;28;8317;-61
2022/08/31 02:09:04;;;;;;;;;;;;;;;29.24;42.00;94403.81;4985613;28;7230;-60
2022/08/31 02:11:32;;;;;;;;;;;;;;;29.25;41.98;94397.75;4992600;28;7309;-60
2022/08/31 02:14:12;;;;;;;;;;;;;;;29.25;42.14;94402.56;4989701;28;6973;-60
2022/08/31 02:16:41;;;;;;;;;;;;;;;29.26;42.58;94398.47;4985935;28;9603;-60
2022/08/31 02:19:08;;;;;;;;;;;;;;;29.24;42.56;94398.28;4990658;28;7590;-61
2022/08/31 02:21:40;;;;;;;;;;;;;;;29.22;41.67;94409.91;4988512;28;7545;-60
2022/08/31 02:24:11;;;;;;;;;;;;;;;29.21;42.31;94407.69;4994425;28;7313;-60
2022/08/31 02:26:39;;;;;;;;;;;;;;;29.20;42.54;94417.25;5010296;28;8602;-61
2022/08/31 02:29:12;;;;;;;;;;;;;;;29.17;42.69;94404.50;4970636;28;7593;-61
2022/08/31 02:31:53;;;;;;;;;;;;;;;29.17;42.22;94405.22;4991768;28;7291;-60
2022/08/31 02:34:39;;;;;;;;;;;;;;;29.18;42.14;94403.94;4989710;28;7114;-61
2022/08/31 02:37:07;;;;;;;;;;;;;;;29.20;42.17;94414.47;4990643;28;7674;-60
2022/08/31 02:39:38;;;;;;;;;;;;;;;29.15;41.90;94410.50;4988472;28;7545;-61
2022/08/31 02:42:08;;;;;;;;;;;;;;;29.16;41.78;94409.28;5012991;28;7183;-60
2022/08/31 02:44:40;;;;;;;;;;;;;;;29.17;42.68;94405.22;4988874;28;7105;-61
2022/08/31 02:47:18;;;;;;;;;;;;;;;29.18;41.67;94400.41;5003139;28;6954;-60
2022/08/31 02:49:51;;;;;;;;;;;;;;;29.19;42.17;94394.34;5003039;28;7813;-61
2022/08/31 02:52:26;;;;;;;;;;;;;;;29.19;41.76;94402.66;4990399;28;7283;-61
2022/08/31 02:55:03;;;;;;;;;;;;;;;29.20;41.96;94400.63;5001668;28;7410;-61
2022/08/31 02:57:37;;;;;;;;;;;;;;;29.21;41.76;94410.44;4991598;28;7248;-61
2022/08/31 03:00:12;;;;;;;;;;;;;;;29.19;41.95;94413.00;4986096;28;9741;-60
2022/08/31 03:02:39;;;;;;;;;;;;;;;29.20;41.84;94411.72;4989142;28;7259;-60
2022/08/31 03:05:09;;;;;;;;;;;;;;;29.20;42.36;94415.22;4997642;28;7222;-60
2022/08/31 03:07:42;;;;;;;;;;;;;;;29.19;41.74;94419.28;4984401;28;7648;-60
2022/08/31 03:10:20;;;;;;;;;;;;;;;29.20;42.58;94414.47;5001621;28;7200;-60
2022/08/31 03:12:48;;;;;;;;;;;;;;;29.17;42.36;94418.34;4987887;28;9420;-61
2022/08/31 03:15:16;;;;;;;;;;;;;;;29.18;41.92;94406.72;4988982;28;7299;-60
2022/08/31 03:17:42;;;;;;;;;;;;;;;29.16;41.98;94412.03;5006030;28;7497;-60
2022/08/31 03:20:18;;;;;;;;;;;;;;;29.16;42.03;94409.28;5002626;28;7037;-60
2022/08/31 03:22:44;;;;;;;;;;;;;;;29.15;42.31;94410.50;4999859;28;9512;-60
2022/08/31 03:25:10;;;;;;;;;;;;;;;29.15;42.44;94402.19;4985671;28;7530;-61
2022/08/31 03:27:39;;;;;;;;;;;;;;;29.16;42.62;94408.50;5007031;28;9408;-61
2022/08/31 03:30:25;;;;;;;;;;;;;;;29.16;42.28;94419.56;4998358;28;7277;-60
2022/08/31 03:33:11;;;;;;;;;;;;;;;29.16;42.21;94412.03;5006853;28;7474;-60
2022/08/31 03:35:51;;;;;;;;;;;;;;;29.16;41.70;94411.25;4988646;28;7432;-60
2022/08/31 03:38:17;;;;;;;;;;;;;;;29.16;42.12;94414.81;5006767;28;8316;-60
2022/08/31 03:40:45;;;;;;;;;;;;;;;29.16;41.73;94422.34;4992773;28;8426;-60
2022/08/31 03:43:29;;;;;;;;;;;;;;;29.15;42.42;94420.84;4985959;28;7262;-61
2022/08/31 03:45:55;;;;;;;;;;;;;;;29.15;41.89;94418.81;5009515;28;7836;-61
2022/08/31 03:48:37;;;;;;;;;;;;;;;29.15;42.45;94426.38;4978511;28;7629;-60
2022/08/31 03:51:30;;;;;;;;;;;;;;;29.15;41.46;94429.91;4973405;28;8589;-60
2022/08/31 03:53:56;;;;;;;;;;;;;;;29.14;42.08;94422.88;4994372;28;9970;-60
2022/08/31 03:56:51;;;;;;;;;;;;;;;29.12;42.23;94427.47;4992511;28;7007;-61
2022/08/31 03:59:17;;;;;;;;;;;;;;;29.12;41.67;94422.69;4951613;28;7152;-61
2022/08/31 04:01:43;;;;;;;;;;;;;;;29.13;41.84;94426.16;4943108;28;6990;-61
2022/08/31 04:04:12;;;;;;;;;;;;;;;29.10;42.09;94428.72;4932322;28;7470;-61
2022/08/31 04:06:43;;;;;;;;;;;;;;;29.13;41.91;94426.16;4946088;28;7075;-61
2022/08/31 04:09:20;;;;;;;;;;;;;;;29.14;42.01;94422.88;4948411;28;7013;-60
2022/08/31 04:11:47;;;;;;;;;;;;;;;29.14;42.39;94422.88;4949297;28;7189;-61
2022/08/31 04:14:17;;;;;;;;;;;;;;;29.12;41.75;94424.69;4932331;28;7267;-60
2022/08/31 04:16:44;;;;;;;;;;;;;;;29.12;41.89;94424.69;4945537;28;7230;-61
2022/08/31 04:19:14;;;;;;;;;;;;;;;29.07;41.96;94424.28;4928812;28;9662;-61
2022/08/31 04:21:42;;;;;;;;;;;;;;;29.10;41.89;94428.00;4928625;29;7516;-60
2022/08/31 04:24:17;;;;;;;;;;;;;;;29.11;42.08;94426.72;4948384;28;7392;-61
2022/08/31 04:27:00;;;;;;;;;;;;;;;29.10;42.38;94423.19;4949646;28;7817;-61
2022/08/31 04:29:36;;;;;;;;;;;;;;;29.09;42.15;94427.25;4951467;28;7241;-60
2022/08/31 04:32:32;;;;;;;;;;;;;;;29.08;42.27;94422.97;4938424;28;7182;-61
2022/08/31 04:35:08;;;;;;;;;;;;;;;29.08;41.89;94420.22;4945670;28;7772;-61
2022/08/31 04:37:40;;;;;;;;;;;;;;;29.07;42.41;94415.22;4978409;28;7226;-61
2022/08/31 04:40:18;;;;;;;;;;;;;;;29.09;42.01;94418.94;4968143;28;7494;-61
2022/08/31 04:43:13;;;;;;;;;;;;;;;29.06;41.69;94425.53;4984744;28;7283;-60
2022/08/31 04:46:25;;;;;;;;;;;;;;;29.05;42.56;94418.53;4968845;28;7343;-60
2022/08/31 04:49:01;;;;;;;;;;;;;;;29.09;42.19;94427.25;4971278;28;7222;-60
2022/08/31 04:51:35;;;;;;;;;;;;;;;29.06;41.85;94422.78;4970509;28;8520;-60
2022/08/31 04:54:06;;;;;;;;;;;;;;;29.07;41.71;94417.97;4983245;28;7625;-59
2022/08/31 04:56:35;;;;;;;;;;;;;;;29.06;42.35;94424.78;4987857;28;7212;-60
2022/08/31 04:59:05;;;;;;;;;;;;;;;29.06;42.60;94424.78;4987700;28;7002;-60
2022/08/31 05:01:37;;;;;;;;;;;;;;;29.06;42.34;94424.78;4971673;28;7318;-60
2022/08/31 05:04:04;;;;;;;;;;;;;;;29.09;42.32;94432.03;4984943;28;7367;-60
2022/08/31 05:06:36;;;;;;;;;;;;;;;29.09;42.34;94430.03;4983287;28;7051;-60
2022/08/31 05:09:17;;;;;;;;;;;;;;;29.10;42.15;94431.50;4980305;28;8992;-60
2022/08/31 05:11:50;;;;;;;;;;;;;;;29.09;42.78;94426.50;4958052;28;7281;-60
2022/08/31 05:14:20;;;;;;;;;;;;;;;29.09;42.42;94432.78;4964659;28;7260;-60
2022/08/31 05:16:47;;;;;;;;;;;;;;;29.09;42.48;94424.47;4958163;28;9925;-60
2022/08/31 05:19:13;;;;;;;;;;;;;;;29.11;42.02;94423.94;4958271;28;9443;-60
2022/08/31 05:21:53;;;;;;;;;;;;;;;29.09;42.28;94423.72;4952453;28;9024;-60
2022/08/31 05:24:52;;;;;;;;;;;;;;;29.09;42.02;94420.97;4954059;28;7362;-60
2022/08/31 05:27:27;;;;;;;;;;;;;;;29.08;42.58;94419.47;4943595;28;8702;-60
2022/08/31 05:30:29;;;;;;;;;;;;;;;29.08;42.28;94422.22;4952935;28;9379;-60
2022/08/31 05:33:09;;;;;;;;;;;;;;;29.08;42.33;94416.69;4893110;29;8632;-60
2022/08/31 05:35:37;;;;;;;;;;;;;;;29.04;42.80;94424.56;4899730;29;7026;-60
2022/08/31 05:38:10;;;;;;;;;;;;;;;29.01;42.68;94429.16;4902102;29;9689;-60
2022/08/31 05:41:01;;;;;;;;;;;;;;;29.02;42.84;94433.44;4892020;29;7160;-61
2022/08/31 05:43:33;;;;;;;;;;;;;;;29.03;42.37;94434.19;4895951;29;9688;-61
2022/08/31 05:46:05;;;;;;;;;;;;;;;29.03;42.12;94428.63;4902057;29;8098;-61
2022/08/31 05:48:45;;;;;;;;;;;;;;;29.04;42.45;94436.41;4902516;29;6849;-60
2022/08/31 05:51:30;;;;;;;;;;;;;;;29.07;42.74;94438.13;4899944;29;7315;-60
2022/08/31 05:54:00;;;;;;;;;;;;;;;29.09;41.86;94438.34;4899673;29;7313;-61
2022/08/31 05:56:40;;;;;;;;;;;;;;;29.08;42.03;94441.63;4888703;29;7243;-60
2022/08/31 05:59:08;;;;;;;;;;;;;;;29.08;41.96;94431.28;4889580;29;7252;-61
2022/08/31 06:01:37;;;;;;;;;;;;;;;29.08;41.93;94436.81;4901115;29;7254;-60
2022/08/31 06:04:07;;;;;;;;;;;;;;;29.07;42.56;94435.34;4893126;29;9784;-60
2022/08/31 06:06:33;;;;;;;;;;;;;;;29.04;42.29;94430.88;4936805;28;6858;-61
2022/08/31 06:09:03;;;;;;;;;;;;;;;29.03;41.73;94432.16;4983772;28;7498;-61
2022/08/31 06:11:41;;;;;;;;;;;;;;;29.03;42.39;94434.94;4969057;28;7472;-61
2022/08/31 06:14:25;;;;;;;;;;;;;;;29.04;41.80;94439.19;4994273;28;9006;-61
2022/08/31 06:16:58;;;;;;;;;;;;;;;29.02;41.83;94441.72;5010106;28;7206;-60
2022/08/31 06:19:28;;;;;;;;;;;;;;;29.04;42.84;94438.41;4985392;28;7212;-60
2022/08/31 06:21:56;;;;;;;;;;;;;;;29.01;42.46;94440.22;4998386;28;6990;-61
2022/08/31 06:24:24;;;;;;;;;;;;;;;28.99;42.79;94437.25;4994705;28;8303;-60
2022/08/31 06:27:09;;;;;;;;;;;;;;;28.98;42.01;94435.78;5012897;28;7235;-61
2022/08/31 06:29:35;;;;;;;;;;;;;;;28.97;42.51;94439.81;4988300;28;7644;-60
2022/08/31 06:32:09;;;;;;;;;;;;;;;28.97;42.10;94442.56;5009058;28;7297;-60
2022/08/31 06:34:41;;;;;;;;;;;;;;;28.95;42.41;94436.06;4969378;28;9447;-60
2022/08/31 06:37:28;;;;;;;;;;;;;;;28.94;42.41;94443.66;4984257;28;7305;-61
2022/08/31 06:40:04;;;;;;;;;;;;;;;28.95;42.31;94442.38;4990796;28;9529;-60
2022/08/31 06:42:38;;;;;;;;;;;;;;;28.94;42.38;94445.69;4990815;28;6977;-60
2022/08/31 06:45:07;;;;;;;;;;;;;;;28.94;42.25;94445.69;4991300;28;7099;-60
2022/08/31 06:47:32;;;;;;;;;;;;;;;28.93;42.45;94446.94;4983906;28;7697;-60
2022/08/31 06:50:03;;;;;;;;;;;;;;;28.91;42.17;94453.00;5005233;28;8319;-60
2022/08/31 06:52:40;;;;;;;;;;;;;;;28.93;42.23;94452.47;5008419;28;7241;-60
2022/08/31 06:55:09;;;;;;;;;;;;;;;28.92;41.81;94453.78;4971125;28;9023;-60
2022/08/31 06:57:36;;;;;;;;;;;;;;;28.91;42.42;94449.50;4986384;28;9510;-61
2022/08/31 07:00:11;;;;;;;;;;;;;;;28.90;42.00;94454.31;4974864;28;7567;-60
2022/08/31 07:02:37;;;;;;;;;;;;;;;28.89;42.31;94458.34;5005754;28;7053;-61
2022/08/31 07:05:03;;;;;;;;;;;;;;;28.90;42.21;94459.84;5009000;28;9673;-60
2022/08/31 07:07:39;;;;;;;;;;;;;;;28.89;41.94;94452.06;4990531;28;7016;-61
2022/08/31 07:10:09;;;;;;;;;;;;;;;28.86;42.05;94451.09;4995440;28;6994;-60
2022/08/31 07:12:38;;;;;;;;;;;;;;;28.88;42.15;94458.88;4974159;28;7206;-60
2022/08/31 07:15:05;;;;;;;;;;;;;;;28.87;42.61;94462.91;5006066;28;7694;-60
2022/08/31 07:17:31;;;;;;;;;;;;;;;28.85;42.33;94459.94;5004015;28;7204;-60
2022/08/31 07:20:24;;;;;;;;;;;;;;;28.86;42.67;94464.94;4989756;28;7310;-61
2022/08/31 07:22:50;;;;;;;;;;;;;;;28.86;42.12;94453.84;4947588;28;9593;-61
2022/08/31 07:25:17;;;;;;;;;;;;;;;28.86;42.04;94458.66;4945619;28;7278;-60
2022/08/31 07:27:54;;;;;;;;;;;;;;;28.86;41.63;94461.44;4951389;28;9478;-61
2022/08/31 07:30:23;;;;;;;;;;;;;;;28.86;41.76;94462.16;4948220;28;7627;-61
2022/08/31 07:32:53;;;;;;;;;;;;;;;28.87;41.83;94465.69;4952590;28;7007;-60
2022/08/31 07:35:32;;;;;;;;;;;;;;;28.85;41.75;94469.00;4934443;28;9423;-60
2022/08/31 07:44:08;;;;;;;;;;;;;;;28.86;42.26;94473.22;4951234;28;7462;-61
2022/08/31 07:46:45;;;;;;;;;;;;;;;28.83;41.90;94477.09;4951132;28;6935;-61
2022/08/31 07:49:34;;;;;;;;;;;;;;;28.82;41.94;94478.34;4951529;28;7251;-60
2022/08/31 07:52:10;;;;;;;;;;;;;;;28.82;42.27;94481.13;4951229;28;7004;-61
2022/08/31 07:54:49;;;;;;;;;;;;;;;28.83;41.71;94485.38;4948292;28;9435;-61
2022/08/31 07:57:36;;;;;;;;;;;;;;;28.83;42.26;94485.38;4949896;28;7227;-61
2022/08/31 08:00:13;;;;;;;;;;;;;;;28.84;42.01;94486.13;4970362;28;7826;-60
2022/08/31 08:02:44;;;;;;;;;;;;;;;28.84;41.70;94495.16;4988795;28;7360;-60
2022/08/31 08:05:19;;;;;;;;;;;;;;;28.85;41.83;94491.13;4988487;28;7360;-60
2022/08/31 08:07:52;;;;;;;;;;;;;;;28.82;42.09;94486.66;4985270;28;7016;-60
2022/08/31 08:10:28;;;;;;;;;;;;;;;28.83;42.51;94493.69;4982650;28;8149;-60
2022/08/31 08:13:01;;;;;;;;;;;;;;;28.83;41.76;94482.63;4990550;28;7156;-60
2022/08/31 08:15:47;;;;;;;;;;;;;;;28.82;41.67;94496.97;4989425;28;8798;-61
2022/08/31 08:18:15;;;;;;;;;;;;;;;28.83;41.59;94499.22;4985297;28;7671;-60
2022/08/31 08:20:46;;;;;;;;;;;;;;;28.84;41.83;94494.44;4987290;28;7233;-61
2022/08/31 08:23:18;;;;;;;;;;;;;;;28.85;41.55;94501.47;4986225;28;7296;-60
2022/08/31 08:25:46;;;;;;;;;;;;;;;28.82;41.91;94494.19;5002603;28;7278;-60
2022/08/31 08:28:20;;;;;;;;;;;;;;;28.82;42.32;94506.03;4983622;28;8296;-61
2022/08/31 08:30:53;;;;;;;;;;;;;;;28.81;41.90;94501.78;5007679;28;7263;-60
2022/08/31 08:33:26;;;;;;;;;;;;;;;28.86;42.23;94511.28;4987176;28;7267;-60
2022/08/31 08:36:02;;;;;;;;;;;;;;;28.86;41.88;94512.00;4986339;28;7277;-61
2022/08/31 08:38:42;;;;;;;;;;;;;;;28.86;41.86;94520.31;4991134;28;9421;-60
2022/08/31 08:42:01;;;;;;;;;;;;;;;28.87;41.86;94515.53;4981817;28;7556;-60
2022/08/31 08:44:34;;;;;;;;;;;;;;;28.86;41.64;94520.31;4932126;29;7310;-61
2022/08/31 08:47:17;;;;;;;;;;;;;;;28.86;41.92;94525.84;4930241;28;7340;-60
2022/08/31 08:49:54;;;;;;;;;;;;;;;28.84;42.06;94511.78;4945443;29;7239;-61
2022/08/31 08:52:27;;;;;;;;;;;;;;;28.86;42.24;94517.53;4932122;28;7446;-61
2022/08/31 08:54:55;;;;;;;;;;;;;;;28.85;42.38;94524.38;4926159;29;7237;-60
2022/08/31 08:57:28;;;;;;;;;;;;;;;28.85;42.20;94529.91;4942754;29;7196;-60
2022/08/31 09:00:09;;;;;;;;;;;;;;;28.86;42.63;94523.06;4944221;29;7350;-61
2022/08/31 09:02:45;;;;;;;;;;;;;;;28.85;42.30;94529.91;4929305;29;7503;-60
2022/08/31 09:05:59;;;;;;;;;;;;;;;28.85;42.83;94527.13;4938664;29;7613;-60
2022/08/31 09:09:09;;;;;;;;;;;;;;;28.85;42.88;94534.69;4900118;29;7460;-60
2022/08/31 09:12:08;;;;;;;;;;;;;;;28.83;43.24;94534.47;4877389;29;7018;-60
2022/08/31 09:15:14;;;;;;;;;;;;;;;28.82;42.82;94530.94;4817066;29;7237;-60
2022/08/31 09:18:09;;;;;;;;;;;;;;;28.83;43.02;94532.44;4754119;30;7389;-60
2022/08/31 09:21:05;;;;;;;;;;;;;;;28.83;43.21;94532.44;4741804;30;7842;-61
2022/08/31 09:24:08;;;;;;;;;;;;;;;28.83;42.29;94540.75;4782926;29;7905;-61
2022/08/31 09:27:19;;;;;;;;;;;;;;;28.84;42.92;94542.22;4753286;30;8275;-60
2022/08/31 09:29:59;;;;;;;;;;;;;;;28.83;43.23;94538.00;4770617;30;7586;-61
2022/08/31 09:32:35;;;;;;;;;;;;;;;28.84;43.17;94533.94;4783107;29;8030;-60
2022/08/31 09:35:28;;;;;;;;;;;;;;;28.84;43.28;94533.94;4769220;30;7042;-60
2022/08/31 09:38:28;;;;;;;;;;;;;;;28.85;43.27;94543.00;4788382;29;8679;-60
2022/08/31 09:41:30;;;;;;;;;;;;;;;28.82;43.60;94541.25;4837444;29;7209;-60
2022/08/31 09:44:20;;;;;;;;;;;;;;;28.84;43.73;94545.00;4875292;29;9638;-60
2022/08/31 09:47:12;;;;;;;;;;;;;;;28.85;43.57;94554.81;4858532;29;7270;-60
2022/08/31 09:49:52;;;;;;;;;;;;;;;28.85;43.91;94548.53;4862611;29;7194;-61
2022/08/31 09:55:32;;;;;;;;;;;;;;;28.83;44.25;94538.00;4921638;29;8736;-61
2022/08/31 09:58:29;;;;;;;;;;;;;;;28.86;44.42;94542.44;4925063;29;7311;-60
2022/08/31 10:00:56;;;;;;;;;;;;;;;28.83;44.56;94532.44;4927738;28;7290;-60
2022/08/31 10:03:27;;;;;;;;;;;;;;;28.83;44.78;94532.44;4943905;28;7298;-60
2022/08/31 10:05:54;;;;;;;;;;;;;;;28.74;45.67;94535.63;4928760;28;7385;-60
2022/08/31 10:08:40;;;;;;;;;;;;;;;28.74;45.26;94530.09;4915933;29;9337;-60
2022/08/31 10:11:20;;;;;;;;;;;;;;;28.79;44.92;94534.78;4925153;28;7370;-61
2022/08/31 10:14:34;;;;;;;;;;;;;;;28.77;44.90;94534.56;4941832;28;7210;-60
2022/08/31 10:17:36;;;;;;;;;;;;;;;28.77;44.78;94542.13;4940837;28;8614;-60
2022/08/31 10:20:15;;;;;;;;;;;;;;;28.76;44.70;94530.31;4941243;28;7618;-60
2022/08/31 10:22:49;;;;;;;;;;;;;;;28.74;45.85;94540.41;4923025;28;6982;-60
2022/08/31 10:25:22;;;;;;;;;;;;;;;28.73;45.61;94536.16;4935875;28;7534;-60
2022/08/31 10:28:30;;;;;;;;;;;;;;;28.76;45.23;94538.59;4938918;28;7181;-60
2022/08/31 10:31:12;;;;;;;;;;;;;;;28.78;45.11;94535.31;4924856;29;7554;-60
2022/08/31 10:36:41;;;;;;;;;;;;;;;28.85;45.08;94540.97;4996631;28;7574;-60
2022/08/31 10:39:49;;;;;;;;;;;;;;;28.88;44.82;94537.13;5008774;28;7237;-59
2022/08/31 10:42:47;;;;;;;;;;;;;;;28.86;45.10;94531.38;4985382;28;7234;-60
2022/08/31 10:45:23;;;;;;;;;;;;;;;28.84;44.63;94527.66;4987816;28;7125;-60
2022/08/31 10:48:03;;;;;;;;;;;;;;;28.84;45.32;94524.91;4990091;28;9325;-60
2022/08/31 10:51:04;;;;;;;;;;;;;;;28.81;45.25;94518.41;5006041;28;7233;-61
2022/08/31 10:53:58;;;;;;;;;;;;;;;28.80;45.19;94527.22;4986395;28;9318;-61
2022/08/31 10:57:07;;;;;;;;;;;;;;;28.81;45.02;94523.94;4948130;28;7428;-60
2022/08/31 11:00:40;;;;;;;;;;;;;;;28.81;44.09;94523.19;4948990;28;7108;-60
2022/08/31 11:03:11;;;;;;;;;;;;;;;28.83;44.57;94512.31;4947816;28;7213;-60
2022/08/31 11:06:12;;;;;;;;;;;;;;;28.84;44.12;94520.09;4951001;28;7984;-61
2022/08/31 11:08:47;;;;;;;;;;;;;;;28.85;44.35;94515.31;4951789;28;7464;-61
2022/08/31 11:11:37;;;;;;;;;;;;;;;28.85;44.23;94513.28;4935179;28;7247;-60
2022/08/31 11:14:48;;;;;;;;;;;;;;;28.83;44.26;94513.06;4950413;28;7167;-60
2022/08/31 11:17:28;;;;;;;;;;;;;;;28.85;44.69;94507.00;4951663;28;7235;-60
2022/08/31 11:20:41;;;;;;;;;;;;;;;28.86;44.59;94502.97;4939879;28;7293;-61
2022/08/31 11:23:11;;;;;;;;;;;;;;;28.85;44.23;94504.97;4932367;28;6995;-60
2022/08/31 11:26:10;;;;;;;;;;;;;;;28.85;44.39;94504.97;4938265;28;7591;-60
2022/08/31 11:29:00;;;;;;;;;;;;;;;28.84;45.03;94497.22;4927318;28;7348;-60
2022/08/31 11:31:29;;;;;;;;;;;;;;;28.81;44.51;94495.50;4873097;29;7381;-61
2022/08/31 11:34:12;;;;;;;;;;;;;;;28.81;44.28;94496.25;4881856;29;7124;-60
2022/08/31 11:39:48;;;;;;;;;;;;;;;28.85;44.24;94491.13;4886353;29;9445;-60
2022/08/31 11:42:21;;;;;;;;;;;;;;;28.85;44.64;94491.13;4897394;29;8099;-60
2022/08/31 11:45:05;;;;;;;;;;;;;;;28.87;44.67;94487.84;4908714;29;7305;-60
2022/08/31 11:47:45;;;;;;;;;;;;;;;28.88;45.05;94484.53;4904621;29;6988;-60
2022/08/31 11:50:49;;;;;;;;;;;;;;;28.89;44.49;94491.56;4906685;29;8657;-60
2022/08/31 11:53:50;;;;;;;;;;;;;;;28.89;44.76;94486.03;4905353;29;8124;-61
2022/08/31 11:56:56;;;;;;;;;;;;;;;28.91;44.75;94482.72;4907336;29;8342;-61
2022/08/31 11:59:33;;;;;;;;;;;;;;;28.91;45.45;94485.50;4881954;29;8466;-61
2022/08/31 12:02:18;;;;;;;;;;;;;;;28.91;45.14;94483.47;4893389;29;7535;-60
2022/08/31 12:04:47;;;;;;;;;;;;;;;28.91;44.75;94483.47;4892155;29;9408;-60
2022/08/31 12:07:47;;;;;;;;;;;;;;;28.90;45.23;94479.22;4910287;29;7132;-60
2022/08/31 12:10:56;;;;;;;;;;;;;;;28.91;44.45;94480.72;4909872;29;9594;-60
2022/08/31 12:13:48;;;;;;;;;;;;;;;28.94;44.73;94484.44;4940987;28;7404;-61
2022/08/31 12:16:44;;;;;;;;;;;;;;;28.95;44.40;94483.16;4923441;29;7003;-60
2022/08/31 12:25:21;;;;;;;;;;;;;;;28.94;44.43;94493.50;4928145;29;9951;-60
2022/08/31 12:28:23;;;;;;;;;;;;;;;28.93;44.43;94491.25;4938672;28;7211;-61
2022/08/31 12:30:53;;;;;;;;;;;;;;;28.94;44.79;94496.28;4917857;29;8301;-60
2022/08/31 12:33:27;;;;;;;;;;;;;;;28.94;44.27;94495.50;4943349;28;9490;-61
2022/08/31 12:36:14;;;;;;;;;;;;;;;28.94;44.82;94495.50;4960197;28;7080;-60
2022/08/31 12:38:41;;;;;;;;;;;;;;;28.92;44.34;94484.97;4960955;28;7199;-60
2022/08/31 12:41:38;;;;;;;;;;;;;;;28.92;44.72;94487.00;4960577;28;7779;-60
2022/08/31 12:44:30;;;;;;;;;;;;;;;28.90;44.39;94487.53;4919801;29;7624;-60
2022/08/31 12:47:18;;;;;;;;;;;;;;;28.88;44.99;94489.34;4948091;28;7044;-60
2022/08/31 12:50:07;;;;;;;;;;;;;;;28.86;44.66;94481.53;4966800;28;7177;-60
2022/08/31 12:53:11;;;;;;;;;;;;;;;28.89;44.33;94486.03;4984835;28;7529;-60
2022/08/31 12:56:16;;;;;;;;;;;;;;;28.90;44.07;94486.78;4918183;29;7296;-60
2022/08/31 12:58:56;;;;;;;;;;;;;;;28.89;44.03;94488.78;4920854;29;7850;-60
2022/08/31 13:01:26;;;;;;;;;;;;;;;28.89;44.41;94488.78;4923909;29;7640;-60
2022/08/31 13:03:59;;;;;;;;;;;;;;;28.90;43.65;94487.53;4918732;29;8953;-60
2022/08/31 13:06:32;;;;;;;;;;;;;;;28.90;44.63;94482.00;4917396;29;7341;-60
2022/08/31 13:09:22;;;;;;;;;;;;;;;28.90;44.57;94481.25;4900404;29;7770;-60
2022/08/31 13:11:53;;;;;;;;;;;;;;;28.90;43.89;94476.47;4917791;29;7280;-60
2022/08/31 13:14:42;;;;;;;;;;;;;;;28.90;43.79;94482.00;4904586;29;9530;-60
2022/08/31 13:17:16;;;;;;;;;;;;;;;28.92;44.43;94484.22;4902896;29;9404;-60
2022/08/31 13:19:53;;;;;;;;;;;;;;;28.89;44.46;94476.97;4917227;29;6975;-60
2022/08/31 13:22:32;;;;;;;;;;;;;;;28.86;44.50;94481.53;4913315;29;7066;-60
2022/08/31 13:25:31;;;;;;;;;;;;;;;28.85;44.39;94471.75;4906215;29;9410;-60
2022/08/31 13:28:28;;;;;;;;;;;;;;;28.81;44.39;94463.03;4906252;29;9622;-61
2022/08/31 13:31:04;;;;;;;;;;;;;;;28.81;44.96;94468.56;4859889;29;7202;-61
2022/08/31 13:33:39;;;;;;;;;;;;;;;28.82;44.36;94467.28;4915907;28;7049;-61
2022/08/31 13:36:25;;;;;;;;;;;;;;;28.81;44.72;94465.78;4945090;28;9603;-60
2022/08/31 13:38:54;;;;;;;;;;;;;;;28.82;44.81;94463.75;4932942;28;7181;-61
2022/08/31 13:41:26;;;;;;;;;;;;;;;28.81;44.71;94456.75;4949901;28;7228;-61
2022/08/31 13:44:26;;;;;;;;;;;;;;;28.81;44.25;94460.25;4964676;28;7085;-60
2022/08/31 13:47:04;;;;;;;;;;;;;;;28.81;44.60;94453.97;4948395;28;10931;-60
2022/08/31 13:49:43;;;;;;;;;;;;;;;28.82;44.61;94464.50;4934326;28;9284;-61
2022/08/31 13:52:23;;;;;;;;;;;;;;;28.81;44.66;94454.72;4954092;28;9465;-60
2022/08/31 13:55:05;;;;;;;;;;;;;;;28.81;44.97;94457.50;4932929;28;7078;-61
2022/08/31 13:57:37;;;;;;;;;;;;;;;28.81;44.35;94456.75;4962631;28;7518;-61
2022/08/31 14:00:21;;;;;;;;;;;;;;;28.81;44.86;94457.50;4943497;28;9746;-60
2022/08/31 14:02:47;;;;;;;;;;;;;;;28.81;44.77;94454.72;4961217;28;7299;-60
2022/08/31 14:05:28;;;;;;;;;;;;;;;28.79;44.74;94454.50;4958697;28;8597;-60
2022/08/31 14:08:02;;;;;;;;;;;;;;;28.82;44.18;94458.97;4988305;28;7249;-60
2022/08/31 14:10:36;;;;;;;;;;;;;;;28.81;44.92;94449.19;4984649;28;9384;-61
2022/08/31 14:13:19;;;;;;;;;;;;;;;28.82;44.59;94453.44;4983299;28;9476;-60
2022/08/31 14:15:55;;;;;;;;;;;;;;;28.82;44.80;94450.66;5004977;28;8057;-60
2022/08/31 14:18:46;;;;;;;;;;;;;;;28.83;44.74;94452.16;5006604;28;7192;-60
2022/08/31 14:21:27;;;;;;;;;;;;;;;28.82;44.49;94458.97;4997366;28;7940;-61
2022/08/31 14:24:24;;;;;;;;;;;;;;;28.86;44.31;94453.13;4992384;28;7075;-60